createdAt,value
2018-07-17T00:02:39.713Z,16.9
2018-07-17T00:07:42.110Z,16.799999
2018-07-17T00:12:44.624Z,16.799999
2018-07-17T00:17:46.615Z,16.700001
2018-07-17T00:22:48.939Z,16.799999
2018-07-17T00:27:51.351Z,16.799999
2018-07-17T00:32:53.495Z,16.799999
2018-07-17T00:37:55.773Z,16.700001
2018-07-17T00:42:58.153Z,16.6
2018-07-17T00:48:00.543Z,16.700001
2018-07-17T00:53:02.696Z,16.700001
2018-07-17T00:58:05.029Z,16.700001
2018-07-17T01:03:07.408Z,16.700001
2018-07-17T01:08:09.734Z,16.700001
2018-07-17T01:13:11.906Z,16.700001
2018-07-17T01:18:14.232Z,16.700001
2018-07-17T01:23:16.571Z,16.799999
2018-07-17T01:28:18.722Z,16.799999
2018-07-17T01:33:21.100Z,16.9
2018-07-17T01:38:23.521Z,16.9
2018-07-17T01:43:25.666Z,16.9
2018-07-17T01:48:28.004Z,16.9
2018-07-17T01:53:31.398Z,16.9
2018-07-17T01:58:32.671Z,16.9
2018-07-17T02:03:34.867Z,16.9
2018-07-17T02:08:37.238Z,16.9
2018-07-17T02:13:39.495Z,17
2018-07-17T02:18:41.692Z,17
2018-07-17T02:23:44.036Z,17
2018-07-17T02:28:46.547Z,16.9
2018-07-17T02:33:48.741Z,16.9
2018-07-17T02:38:50.823Z,16.799999
2018-07-17T02:43:53.221Z,16.700001
2018-07-17T02:48:55.470Z,16.700001
2018-07-17T02:53:57.865Z,16.700001
2018-07-17T02:59:00.015Z,16.6
2018-07-17T03:04:02.502Z,16.5
2018-07-17T03:09:04.925Z,16.5
2018-07-17T03:14:07.085Z,16.4
2018-07-17T03:19:09.309Z,16.299999
2018-07-17T03:24:11.669Z,16.299999
2018-07-17T03:29:14.019Z,16.200001
2018-07-17T03:34:16.090Z,16.1
2018-07-17T03:39:18.384Z,16
2018-07-17T03:44:20.842Z,16
2018-07-17T03:49:22.958Z,15.9
2018-07-17T03:54:25.299Z,15.8
2018-07-17T03:59:27.649Z,15.8
2018-07-17T04:04:30.068Z,15.7
2018-07-17T04:09:32.113Z,15.7
2018-07-17T04:14:34.508Z,15.7
2018-07-17T04:19:36.882Z,15.7
2018-07-17T04:29:41.423Z,15.6
2018-07-17T04:34:43.708Z,15.6
2018-07-17T04:39:46.139Z,15.6
2018-07-17T04:44:48.262Z,15.5
2018-07-17T04:49:50.595Z,15.7
2018-07-17T04:54:52.848Z,15.7
2018-07-17T04:59:55.147Z,15.9
2018-07-17T05:09:59.749Z,15.9
2018-07-17T05:15:02.199Z,16
2018-07-17T05:20:04.336Z,16.1
2018-07-17T05:25:06.652Z,16.1
2018-07-17T05:30:09.045Z,16.200001
2018-07-17T05:35:11.330Z,16.4
2018-07-17T05:40:13.491Z,16.5
2018-07-17T05:45:15.809Z,16.6
2018-07-17T05:50:18.061Z,16.700001
2018-07-17T06:00:22.636Z,17
2018-07-17T06:05:24.943Z,17.1
2018-07-17T06:10:27.464Z,17.299999
2018-07-17T06:15:29.520Z,17.4
2018-07-17T06:20:31.994Z,17.6
2018-07-17T06:25:34.261Z,17.799999
2018-07-17T06:30:36.522Z,18.1
2018-07-17T06:35:38.711Z,18.299999
2018-07-17T06:40:41.089Z,18.5
2018-07-17T06:45:43.401Z,18.700001
2018-07-17T06:50:45.712Z,18.799999
2018-07-17T06:55:47.937Z,19.1
2018-07-17T07:00:50.299Z,19.5
2018-07-17T07:05:52.622Z,19.700001
2018-07-17T07:10:54.810Z,19.9
2018-07-17T07:15:57.058Z,20.1
2018-07-17T07:20:59.345Z,20.299999
2018-07-17T07:26:01.717Z,20.5
2018-07-17T07:31:04.224Z,20.799999
2018-07-17T07:36:06.293Z,21
2018-07-17T07:41:08.570Z,21.200001
2018-07-17T07:46:10.883Z,21.5
2018-07-17T07:51:13.171Z,21.700001
2018-07-17T07:56:15.520Z,21.9
2018-07-17T08:01:17.858Z,22.1
2018-07-17T08:06:20.067Z,22.5
2018-07-17T08:11:22.327Z,22.700001
2018-07-17T08:16:24.729Z,22.799999
2018-07-17T08:21:26.909Z,22.9
2018-07-17T08:26:29.135Z,23
2018-07-17T08:31:31.469Z,22.9
2018-07-17T08:36:33.860Z,22.799999
2018-07-17T08:41:36.176Z,23.1
2018-07-17T08:46:38.414Z,23.5
2018-07-17T08:51:40.787Z,23.799999
2018-07-17T08:56:42.994Z,24.200001
2018-07-17T09:01:45.351Z,24.6
2018-07-17T09:06:47.802Z,24.799999
2018-07-17T09:11:49.841Z,24.9
2018-07-17T09:16:52.103Z,25
2018-07-17T09:21:54.571Z,25.200001
2018-07-17T09:26:56.755Z,25.6
2018-07-17T09:31:59.108Z,25.9
2018-07-17T09:37:01.420Z,25.799999
2018-07-17T09:42:03.724Z,26
2018-07-17T09:47:05.930Z,26.1
2018-07-17T09:52:08.193Z,26.6
2018-07-17T09:57:10.616Z,27.5
2018-07-17T10:02:12.814Z,27.1
2018-07-17T10:07:15.131Z,26.200001
2018-07-17T10:12:17.531Z,25.700001
2018-07-17T10:17:19.716Z,26.4
2018-07-17T10:22:22.034Z,26.9
2018-07-17T10:27:24.224Z,27.299999
2018-07-17T10:32:26.607Z,27.1
2018-07-17T10:37:28.807Z,26.700001
2018-07-17T10:42:31.136Z,27.200001
2018-07-17T10:47:33.634Z,27.299999
2018-07-17T10:52:35.865Z,27.299999
2018-07-17T10:57:38.038Z,27.799999
2018-07-17T11:02:40.490Z,27.200001
2018-07-17T11:07:42.740Z,26.6
2018-07-17T11:12:44.999Z,26.200001
2018-07-17T11:17:47.174Z,26.4
2018-07-17T11:22:49.773Z,27.5
2018-07-17T11:27:51.815Z,28.5
2018-07-17T11:32:54.113Z,28.799999
2018-07-17T11:37:56.364Z,29
2018-07-17T11:42:58.770Z,28.6
2018-07-17T11:48:01.048Z,29
2018-07-17T11:53:03.297Z,29.299999
2018-07-17T11:58:05.731Z,28.6
2018-07-17T12:03:07.844Z,28.200001
2018-07-17T12:08:10.288Z,29.5
2018-07-17T12:13:12.513Z,30.1
2018-07-17T12:18:14.780Z,30.6
2018-07-17T12:23:17.066Z,30.799999
2018-07-17T12:28:19.337Z,30.299999
2018-07-17T12:33:21.784Z,30.299999
2018-07-17T12:38:23.977Z,30.299999
2018-07-17T12:43:26.195Z,30.5
2018-07-17T12:48:28.645Z,30
2018-07-17T12:53:30.918Z,30.299999
2018-07-17T12:58:33.142Z,30.4
2018-07-17T13:03:35.519Z,30.799999
2018-07-17T13:08:37.718Z,30.6
2018-07-17T13:13:40.126Z,29.200001
2018-07-17T13:18:42.372Z,28.5
2018-07-17T13:23:44.613Z,27.9
2018-07-17T13:28:46.844Z,27.700001
2018-07-17T13:33:49.207Z,27.5
2018-07-17T13:43:53.735Z,28.299999
2018-07-17T13:48:56.183Z,29.6
2018-07-17T13:53:58.433Z,30
2018-07-17T13:59:00.721Z,29.4
2018-07-17T14:04:02.854Z,29
2018-07-17T14:09:05.399Z,28.6
2018-07-17T14:14:07.578Z,29.6
2018-07-17T14:19:10.021Z,30
2018-07-17T14:24:12.043Z,30.299999
2018-07-17T14:29:14.580Z,29.9
2018-07-17T14:34:16.706Z,29
2018-07-17T14:39:19.017Z,28
2018-07-17T14:44:21.228Z,27.6
2018-07-17T14:49:23.705Z,27.700001
2018-07-17T14:54:25.912Z,28.299999
2018-07-17T14:59:28.169Z,28.200001
2018-07-17T15:04:30.560Z,28.1
2018-07-17T15:09:32.828Z,27.700001
2018-07-17T15:14:35.066Z,28.5
2018-07-17T15:19:37.461Z,28.299999
2018-07-17T15:24:39.798Z,27.700001
2018-07-17T15:29:42.216Z,27.299999
2018-07-17T15:34:44.276Z,27.299999
2018-07-17T15:39:46.684Z,27.700001
2018-07-17T15:44:48.897Z,27.299999
2018-07-17T15:49:51.092Z,27.299999
2018-07-17T15:54:53.506Z,27.299999
2018-07-17T15:59:55.864Z,27.200001
2018-07-17T16:04:58.034Z,27.299999
2018-07-17T16:10:00.355Z,27.200001
2018-07-17T16:15:02.656Z,26.799999
2018-07-17T16:20:04.866Z,26.4
2018-07-17T16:25:07.297Z,26.200001
2018-07-17T16:30:09.512Z,26.1
2018-07-17T16:35:11.788Z,25.9
2018-07-17T16:40:14.075Z,25.6
2018-07-17T16:45:16.527Z,25.6
2018-07-17T16:50:18.657Z,25.5
2018-07-17T16:55:21.074Z,25.299999
2018-07-17T17:00:23.330Z,25.200001
2018-07-17T17:05:25.570Z,25.1
2018-07-17T17:10:27.941Z,24.799999
2018-07-17T17:15:30.265Z,24.6
2018-07-17T17:20:32.474Z,24.4
2018-07-17T17:25:34.998Z,23.9
2018-07-17T17:30:37.057Z,23.9
2018-07-17T17:35:39.344Z,23.9
2018-07-17T17:40:41.724Z,23.799999
2018-07-17T17:45:43.821Z,23.6
2018-07-17T17:50:46.341Z,23.5
2018-07-17T17:55:48.437Z,23.299999
2018-07-17T18:00:50.941Z,23
2018-07-17T18:05:53.121Z,22.9
2018-07-17T18:10:55.345Z,22.799999
2018-07-17T18:15:57.603Z,22.700001
2018-07-17T18:21:00.075Z,22.5
2018-07-17T18:26:02.204Z,22.299999
2018-07-17T18:31:04.580Z,22.200001
2018-07-17T18:36:06.929Z,22.1
2018-07-17T18:41:09.111Z,21.799999
2018-07-17T18:46:11.413Z,21.6
2018-07-17T18:51:13.640Z,21.299999
2018-07-17T18:56:16.105Z,21.1
2018-07-17T19:01:18.268Z,20.799999
2018-07-17T19:06:20.659Z,20.6
2018-07-17T19:11:23.008Z,20.4
2018-07-17T19:16:25.213Z,20.200001
2018-07-17T19:21:27.434Z,20
2018-07-17T19:26:29.795Z,19.799999
2018-07-17T19:31:32.112Z,19.5
2018-07-17T19:36:34.579Z,19.4
2018-07-17T19:41:36.747Z,19.200001
2018-07-17T19:46:39.212Z,19
2018-07-17T19:51:41.423Z,18.799999
2018-07-17T19:56:51.106Z,18.6
2018-07-17T20:01:45.929Z,18.4
2018-07-17T20:06:48.347Z,18.1
2018-07-17T20:11:50.656Z,18
2018-07-17T20:16:52.976Z,17.9
2018-07-17T20:21:55.034Z,17.6
2018-07-17T20:26:57.371Z,17.5
2018-07-17T20:31:59.616Z,17.4
2018-07-17T20:37:01.929Z,17.299999
2018-07-17T20:42:04.284Z,17.200001
2018-07-17T20:47:06.525Z,17.200001
2018-07-17T20:52:08.763Z,17
2018-07-17T20:57:11.044Z,16.6
2018-07-17T21:02:13.468Z,16.5
2018-07-17T21:07:16.672Z,16.5
2018-07-17T21:12:17.984Z,16.5
2018-07-17T21:17:20.361Z,16.299999
2018-07-17T21:22:22.693Z,16.200001
2018-07-17T21:27:24.886Z,16.200001
2018-07-17T21:32:27.100Z,16.1
2018-07-17T21:37:29.397Z,16
2018-07-17T21:42:31.663Z,15.9
2018-07-17T21:47:34.045Z,15.7
2018-07-17T21:52:36.374Z,15.7
2018-07-17T21:57:38.665Z,15.6
2018-07-17T22:02:40.994Z,15.6
2018-07-17T22:07:43.236Z,15.5
2018-07-17T22:12:45.522Z,15.5
2018-07-17T22:17:47.867Z,15.3
2018-07-17T22:22:50.111Z,15.3
2018-07-17T22:27:52.546Z,15.2
2018-07-17T22:32:54.755Z,15.2
2018-07-17T22:37:57.016Z,15.2
2018-07-17T22:42:59.263Z,15.2
2018-07-17T22:48:01.516Z,15.3
2018-07-17T22:53:03.893Z,15.2
2018-07-17T22:58:06.223Z,15.3
2018-07-17T23:03:08.485Z,15.2
2018-07-17T23:08:10.862Z,15.2
2018-07-17T23:13:12.982Z,15.1
2018-07-17T23:18:15.338Z,15.1
2018-07-17T23:23:17.733Z,15.1
2018-07-17T23:28:19.869Z,15
2018-07-17T23:33:22.201Z,14.9
2018-07-17T23:38:24.579Z,14.8
2018-07-17T23:43:26.844Z,14.7
2018-07-17T23:48:29.107Z,14.7
2018-07-17T23:53:31.294Z,14.6
2018-07-17T23:58:33.782Z,14.6
